Flight Track Log - Related Links

Times and Time Zones

All times are in EDT time to prevent confusion due to time zone crossing. See the TRS266 flight status page for this flight to view local times or setup timezone preferences in your user account.

Time Position Orientation Groundspeed Altitude Reporting Facility
EDT Latitude Longitude Course Direction KTS MPH feet Rate Location/Type
Tue 06:09:41 AM 38.8333 -77.0333 237° Southwest 159 183 1,400  Level Potomac TRACON
Tue 06:10:41 AM 38.7667 -77.0333 180° South 228 262 2,700 2,000 Climbing Potomac TRACON
Tue 06:11:35 AM 38.7333 -77.1000 237° Southwest 256 295 5,200 2,750 Climbing Potomac TRACON
Tue 06:13:29 AM 38.7000 -77.2667 256° West 275 316 10,400 2,276 Climbing Potomac TRACON
Tue 06:14:29 AM 38.6500 -77.3667 237° Southwest 326 375 11,800 1,400 Climbing Potomac TRACON
Tue 06:15:00 AM 38.5727 -77.5880 237° Southwest  Level FlightAware Approximate
Tue 06:15:29 AM 38.6000 -77.4667 237° Southwest 373 429 13,200  Level Potomac TRACON
Tue 06:16:29 AM 38.5667 -77.6000 252° West 387 445 15,100 1,000 Climbing Potomac TRACON
Tue 06:17:23 AM 38.5167 -77.7000 237° Southwest 385 443 15,100 483 Level Potomac TRACON
Tue 06:17:56 AM 38.4850 -77.7692 240° Southwest 382 440 15,800 1,355 Climbing Washington Center
Tue 06:18:56 AM 38.4311 -77.8736 237° Southwest 387 445 17,200 1,462 Climbing Washington Center
Tue 06:19:55 AM 38.3683 -77.9911 236° Southwest 399 459 18,700 1,450 Climbing Washington Center
Tue 06:20:56 AM 38.3031 -78.1158 236° Southwest 417 480 20,100 1,339 Climbing Washington Center
Tue 06:21:56 AM 38.2378 -78.2433 237° Southwest 423 487 21,400 1,282 Climbing Washington Center
Tue 06:22:53 AM 38.1681 -78.3728 236° Southwest 441 507 22,600 1,119 Climbing Washington Center
Tue 06:23:54 AM 38.1022 -78.5128 239° Southwest 448 516 23,600 1,082 Climbing Washington Center
Tue 06:24:55 AM 38.0522 -78.6744 249° West 448 516 24,800 1,000 Climbing Washington Center
Tue 06:25:54 AM 38.0072 -78.8097 247° West 466 536 25,600 900 Climbing Washington Center
Tue 06:26:55 AM 37.9550 -78.9628 247° West 472 543 26,600 984 Climbing Washington Center
Tue 06:27:56 AM 37.8983 -79.1128 244° Southwest 472 543 27,600 1,169 Climbing Washington Center
Tue 06:28:53 AM 37.8003 -79.2528 228° Southwest 477 549 28,900 1,160 Climbing Washington Center
Tue 06:29:55 AM 37.7111 -79.3744 227° Southwest 483 556 29,900 893 Climbing Washington Center
Tue 06:30:54 AM 37.6217 -79.4961 227° Southwest 488 562 30,700 950 Climbing Washington Center
Tue 06:31:55 AM 37.5322 -79.6169 227° Southwest 480 552 31,800 645 Climbing Washington Center
Tue 06:32:55 AM 37.4422 -79.7431 228° Southwest 480 552 32,000 102 Climbing Washington Center
Tue 06:33:53 AM 37.3522 -79.8689 228° Southwest 494 568 32,000  Level Washington Center
Tue 06:34:54 AM 37.2603 -79.9889 226° Southwest 489 563 32,000  Level Washington Center
Tue 06:36:59 AM 37.0733 -80.2408 227° Southwest 473 544 32,000  Level Atlanta Center
Tue 06:37:59 AM 36.9853 -80.3594 227° Southwest 473 544 32,000  Level Atlanta Center
Tue 06:38:59 AM 36.8950 -80.4778 226° Southwest 473 544 32,000  Level Atlanta Center
Tue 06:39:59 AM 36.8128 -80.5878 227° Southwest 479 551 32,000  Level Atlanta Center
Tue 06:40:59 AM 36.7181 -80.7136 227° Southwest 474 545 32,000  Level Atlanta Center
Tue 06:41:59 AM 36.6253 -80.8339 226° Southwest 469 540 32,000  Level Atlanta Center
Tue 06:42:59 AM 36.5389 -80.9536 228° Southwest 469 540 32,000  Level Atlanta Center
Tue 06:43:59 AM 36.4500 -81.0731 227° Southwest 469 540 32,000  Level Atlanta Center
Tue 06:44:59 AM 36.3589 -81.1900 226° Southwest 469 540 32,000  Level Atlanta Center
Tue 06:45:59 AM 36.2678 -81.3117 227° Southwest 469 540 32,000  Level Atlanta Center
Tue 06:46:59 AM 36.1786 -81.4303 227° Southwest 474 545 32,000  Level Atlanta Center
Tue 06:47:59 AM 36.0892 -81.5464 226° Southwest 474 545 32,000  Level Atlanta Center
Tue 06:48:59 AM 35.9958 -81.6672 226° Southwest 479 551 32,000  Level Atlanta Center
Tue 06:49:59 AM 35.9061 -81.7828 226° Southwest 484 557 32,000  Level Atlanta Center
Tue 06:50:59 AM 35.8144 -81.9006 226° Southwest 484 557 32,000  Level Atlanta Center
Tue 06:51:59 AM 35.7244 -82.0181 227° Southwest 479 551 32,000  Level Atlanta Center
Tue 06:52:59 AM 35.6325 -82.1353 226° Southwest 479 551 32,000  Level Atlanta Center
Tue 06:53:59 AM 35.5506 -82.2367 225° Southwest 479 551 32,000  Level Atlanta Center
Tue 06:54:59 AM 35.4606 -82.3533 227° Southwest 479 551 32,000 -350 Level Atlanta Center
Tue 06:55:59 AM 35.3639 -82.4572 221° Southwest 474 545 31,300 -700 Descending Atlanta Center
Tue 06:56:59 AM 35.2733 -82.5633 224° Southwest 460 529 30,600 -700 Descending Atlanta Center
Tue 06:57:59 AM 35.1703 -82.6717 221° Southwest 455 524 29,900 -700 Descending Atlanta Center
Tue 06:58:59 AM 35.0775 -82.7747 222° Southwest 455 524 29,200 -750 Descending Atlanta Center
Tue 06:59:59 AM 34.9886 -82.8700 221° Southwest 450 518 28,400 -700 Descending Atlanta Center
Tue 07:00:59 AM 34.9019 -82.9675 223° Southwest 440 506 27,800 -750 Descending Atlanta Center
Tue 07:01:59 AM 34.8108 -83.0572 219° Southwest 430 495 26,900 -1,600 Descending Atlanta Center
Tue 07:02:59 AM 34.7261 -83.1542 223° Southwest 416 479 24,600 -2,250 Descending Atlanta Center
Tue 07:03:59 AM 34.6453 -83.2458 223° Southwest 410 472 22,400 -1,300 Descending Atlanta Center
Tue 07:04:59 AM 34.5622 -83.3300 220° Southwest 404 465 22,000 -450 Descending Atlanta Center
Tue 07:05:59 AM 34.4836 -83.4214 224° Southwest 404 465 21,500 -1,350 Descending Atlanta Center
Tue 07:06:59 AM 34.4025 -83.5050 220° Southwest 398 458 19,300 -1,700 Descending Atlanta Center
Tue 07:07:59 AM 34.3339 -83.5758 220° Southwest 380 437 18,100 -1,350 Descending Atlanta Center
Tue 07:08:59 AM 34.2675 -83.6517 223° Southwest 349 402 16,600 -1,600 Descending Atlanta Center
Tue 07:09:59 AM 34.2031 -83.7247 223° Southwest 329 379 14,900 -1,650 Descending Atlanta Center
Tue 07:10:59 AM 34.1383 -83.7928 221° Southwest 324 373 13,300 -1,450 Descending Atlanta Center
Tue 07:11:59 AM 34.0739 -83.8583 220° Southwest 310 357 12,000 -903 Descending Atlanta Center
Tue 07:12:52 AM 34.0167 -83.9167 220° Southwest 297 342 11,600 -1,062 Descending Atlanta TRACON
Tue 07:13:52 AM 33.9500 -83.9833 220° Southwest 291 335 10,000 -950 Descending Atlanta TRACON
Tue 07:14:52 AM 33.8667 -83.9833 180° South 296 341 9,700 -1,000 Descending Atlanta TRACON
Tue 07:15:52 AM 33.7833 -84.0000 189° South 288 331 8,000 -1,250 Descending Atlanta TRACON
Tue 07:16:52 AM 33.7167 -84.0000 180° South 262 302 7,200 -684 Descending Atlanta TRACON
Tue 07:17:46 AM 33.6667 -84.0000 180° South 213 245 6,700 -1,000 Descending Atlanta TRACON
Tue 07:18:46 AM 33.6500 -84.0667 253° West 187 215 5,300 -850 Descending Atlanta TRACON
Tue 07:19:46 AM 33.6500 -84.1333 270° West 189 217 5,000 -450 Descending Atlanta TRACON
Tue 07:20:46 AM 33.6500 -84.2000 270° West 192 221 4,400 -800 Descending Atlanta TRACON
Tue 07:21:46 AM 33.6500 -84.2500 270° West 189 217 3,400 -1,000 Descending Atlanta TRACON
Tue 07:22:40 AM 33.6500 -84.3167 270° West 184 212 2,500 -895 Descending Atlanta TRACON
Tue 07:23:40 AM 33.6500 -84.3667 270° West 136 157 1,700 -737 Descending Atlanta TRACON
Tue 07:24:34 AM 33.6500 -84.4000 270° West 134 154 1,100 -667 Descending Atlanta TRACON
Tue 07:26:00 AM 33.6367 -84.4279 270° West  Level Estimated
Tue 07:33:00 AM 33.6367 -84.4279 64° Northeast  Level Estimated

Login

Don't have an account? Register now (free) for customized features, flight alerts, and more!